Time;durP1;ratioP1;P1;durP2;ratioP2;P2;SDS_P1;SDS_P2;PMS_P1;PMS_P2;Temp;Humidity;BMP_temperature;BMP_pressure;BME280_temperature;BME280_humidity;BME280_pressure;Samples;Min_cycle;Max_cycle;Signal;HPM_P1;HPM_P2
2022/10/07 00:00:54;;;;;;;35.33;16.67;;;;;;;7.48;82.88;101762.59;1654040;85;25686;-70
2022/10/07 00:03:24;;;;;;;27.58;15.05;;;;;;;7.46;82.58;101760.69;1654093;85;25488;-70
2022/10/07 00:06:14;;;;;;;29.05;16.70;;;;;;;7.46;82.51;101760.14;1654172;85;25485;-70
2022/10/07 00:08:44;;;;;;;29.25;14.47;;;;;;;7.45;83.05;101763.89;1654103;85;29724;-70
2022/10/07 00:11:17;;;;;;;32.20;15.68;;;;;;;7.47;83.26;101763.13;1653867;85;25477;-70
2022/10/07 00:13:47;;;;;;;31.97;16.52;;;;;;;7.46;82.98;101762.03;1653541;85;25512;-69
2022/10/07 00:16:23;;;;;;;28.60;15.20;;;;;;;7.44;82.99;101759.59;1654078;85;25609;-70
2022/10/07 00:18:49;;;;;;;27.27;16.05;;;;;;;7.43;83.21;101763.88;1653830;86;25589;-69
2022/10/07 00:21:18;;;;;;;25.17;15.75;;;;;;;7.41;83.21;101766.81;1653137;85;27492;-70
2022/10/07 00:23:46;;;;;;;26.65;14.60;;;;;;;7.42;83.28;101771.14;1623059;87;25635;-69
2022/10/07 00:26:18;;;;;;;27.05;15.88;;;;;;;7.42;83.40;101763.07;1652408;85;25515;-69
2022/10/07 00:28:45;;;;;;;32.35;16.12;;;;;;;7.42;82.90;101759.55;1651792;86;25606;-70
2022/10/07 00:31:16;;;;;;;27.62;14.33;;;;;;;7.38;82.69;101760.58;1652386;85;25659;-69
2022/10/07 00:33:43;;;;;;;22.30;14.78;;;;;;;7.35;82.33;101761.08;1652056;85;28757;-69
2022/10/07 00:36:14;;;;;;;25.70;13.78;;;;;;;7.31;82.02;101756.47;1652197;85;25681;-69
2022/10/07 00:38:40;;;;;;;25.40;13.93;;;;;;;7.24;81.40;101754.77;1652336;86;25450;-68
2022/10/07 00:41:11;;;;;;;27.35;14.55;;;;;;;7.21;81.18;101755.80;1660753;85;26108;-68
2022/10/07 00:43:38;;;;;;;28.15;14.05;;;;;;;7.17;81.50;101754.66;1655827;85;25592;-68
2022/10/07 00:46:35;;;;;;;25.65;14.95;;;;;;;7.13;81.51;101755.69;1652385;85;28348;-69
2022/10/07 00:49:06;;;;;;;22.73;13.03;;;;;;;7.08;82.20;101758.32;1652201;85;25606;-68
2022/10/07 00:51:34;;;;;;;25.85;13.90;;;;;;;7.04;81.79;101758.55;1652396;86;25412;-68
2022/10/07 00:54:04;;;;;;;25.35;14.13;;;;;;;7.00;81.75;101758.74;1652300;86;25513;-68
2022/10/07 00:56:33;;;;;;;24.72;14.45;;;;;;;6.95;81.84;101754.64;1652360;86;25635;-69
2022/10/07 00:59:00;;;;;;;23.45;14.20;;;;;;;6.92;82.01;101759.46;1652440;85;28051;-69
2022/10/07 01:01:27;;;;;;;27.20;15.20;;;;;;;6.87;82.29;101754.55;1652218;85;25651;-69
2022/10/07 01:03:54;;;;;;;30.40;16.40;;;;;;;6.84;82.13;101751.02;1652329;85;25615;-71
2022/10/07 01:06:22;;;;;;;26.97;15.63;;;;;;;6.80;82.65;101758.77;1652227;85;25733;-71
2022/10/07 01:08:51;;;;;;;26.85;15.95;;;;;;;6.82;83.17;101753.14;1652341;86;25514;-71
2022/10/07 01:11:41;;;;;;;28.75;14.75;;;;;;;6.82;83.73;101751.25;1668767;85;28023;-71
2022/10/07 01:14:38;;;;;;;24.47;15.13;;;;;;;6.81;83.65;101750.16;1653107;85;25510;-68
2022/10/07 01:17:22;;;;;;;26.15;13.13;;;;;;;6.80;83.41;101752.58;1669296;85;25547;-68
2022/10/07 01:20:34;;;;;;;24.40;13.05;;;;;;;6.79;83.31;101749.59;1641122;86;25588;-69
2022/10/07 01:23:33;;;;;;;23.77;13.18;;;;;;;6.73;82.64;101750.06;1655936;85;25644;-68
2022/10/07 01:26:32;;;;;;;18.92;13.22;;;;;;;6.66;82.53;101754.27;1669703;85;27593;-68
2022/10/07 01:29:02;;;;;;;23.65;12.93;;;;;;;6.61;82.60;101750.70;1626538;87;25911;-68
2022/10/07 01:31:34;;;;;;;23.35;13.08;;;;;;;6.56;82.94;101747.39;1632498;87;25729;-68
2022/10/07 01:34:03;;;;;;;20.48;12.68;;;;;;;6.51;82.70;101749.47;1632510;87;25747;-69
2022/10/07 01:36:31;;;;;;;25.40;13.10;;;;;;;6.48;82.62;101753.98;1613872;88;25471;-68
2022/10/07 01:39:02;;;;;;;26.77;15.40;;;;;;;6.43;82.71;101743.16;1636958;87;29664;-70
2022/10/07 01:41:30;;;;;;;21.97;12.60;;;;;;;6.39;82.44;101750.09;1636936;87;25546;-69
2022/10/07 01:43:59;;;;;;;20.27;12.33;;;;;;;6.34;82.70;101750.02;1637021;87;25550;-70
2022/10/07 01:46:29;;;;;;;22.90;12.53;;;;;;;6.31;82.33;101750.50;1637151;87;25567;-69
2022/10/07 01:48:56;;;;;;;26.33;11.88;;;;;;;6.26;82.33;101748.53;1637206;87;32783;-69
2022/10/07 01:51:29;;;;;;;24.30;11.88;;;;;;;6.24;82.54;101749.31;1637007;87;27446;-69
2022/10/07 01:54:23;;;;;;;20.37;11.57;;;;;;;6.21;82.81;101747.11;1636675;87;25454;-69
2022/10/07 01:57:09;;;;;;;21.75;12.28;;;;;;;6.18;82.46;101753.00;1636164;87;25625;-68
2022/10/07 02:00:09;;;;;;;22.37;11.73;;;;;;;6.14;82.96;101750.49;1636089;87;25641;-68
2022/10/07 02:03:05;;;;;;;26.73;13.28;;;;;;;6.09;82.70;101749.87;1637183;87;25477;-68
2022/10/07 02:05:55;;;;;;;19.85;11.60;;;;;;;6.06;82.76;101746.86;1650049;86;27583;-68
2022/10/07 02:08:45;;;;;;;22.10;11.53;;;;;;;6.01;82.40;101744.09;1670470;85;25604;-68
2022/10/07 02:11:27;;;;;;;22.22;11.33;;;;;;;5.95;82.21;101745.31;1670562;84;25731;-68
2022/10/07 02:14:17;;;;;;;21.87;12.25;;;;;;;5.90;81.85;101749.78;1670594;85;25493;-68
2022/10/07 02:16:47;;;;;;;;;;;;;;;5.85;82.56;101753.19;1673168;85;25646;-68
2022/10/07 02:19:27;;;;;;;21.15;12.25;;;;;;;5.84;83.19;101754.27;1670516;84;28072;-69
2022/10/07 02:21:56;;;;;;;22.67;13.15;;;;;;;5.79;82.96;101750.95;1668580;85;26187;-69
2022/10/07 02:24:27;;;;;;;20.35;11.60;;;;;;;5.76;82.54;101751.42;1668487;85;25541;-69
2022/10/07 02:26:56;;;;;;;24.15;11.38;;;;;;;5.71;82.35;101744.62;1668436;85;25742;-69
2022/10/07 02:29:25;;;;;;;24.02;11.60;;;;;;;5.67;82.11;101758.25;1668507;85;25587;-69
2022/10/07 02:31:52;;;;;;;23.77;12.25;;;;;;;5.63;81.95;101756.27;1668503;86;28085;-69
2022/10/07 02:34:22;;;;;;;19.50;12.03;;;;;;;5.56;81.78;101757.76;1668282;85;25671;-69
2022/10/07 02:36:53;;;;;;;19.52;10.58;;;;;;;5.51;81.92;101757.12;1647225;86;25710;-69
2022/10/07 02:39:20;;;;;;;21.15;11.93;;;;;;;5.46;81.67;101757.02;1668347;85;25424;-69
2022/10/07 02:42:08;;;;;;;19.73;11.50;;;;;;;5.41;81.68;101755.58;1668331;85;25731;-68
2022/10/07 02:44:55;;;;;;;19.52;11.45;;;;;;;5.38;81.67;101757.39;1661182;85;27466;-69
2022/10/07 02:47:27;;;;;;;18.50;11.40;;;;;;;5.34;81.56;101755.72;1666321;85;25480;-69
2022/10/07 02:50:00;;;;;;;21.40;11.30;;;;;;;5.29;81.50;101755.61;1668553;85;25656;-69
2022/10/07 02:52:31;;;;;;;21.77;12.15;;;;;;;5.24;81.42;101755.01;1668471;85;26108;-69
2022/10/07 02:55:10;;;;;;;30.70;12.18;;;;;;;5.21;81.51;101754.64;1668553;85;25583;-69
2022/10/07 02:57:46;;;;;;;24.30;12.53;;;;;;;5.17;81.28;101756.17;1667589;84;28424;-68
2022/10/07 03:00:14;;;;;;;22.10;11.57;;;;;;;5.12;81.29;101754.73;1668424;86;25573;-68
2022/10/07 03:02:57;;;;;;;17.60;11.48;;;;;;;5.08;81.20;101754.92;1668505;85;25582;-69
2022/10/07 03:05:24;;;;;;;18.77;11.33;;;;;;;5.05;81.32;101756.20;1668435;84;25537;-73
2022/10/07 03:07:58;;;;;;;30.20;13.03;;;;;;;5.00;81.22;101751.53;1647242;86;25670;-69
2022/10/07 03:10:25;;;;;;;21.45;12.43;;;;;;;4.96;81.06;101752.26;1667643;84;27502;-68
2022/10/07 03:12:52;;;;;;;22.10;12.18;;;;;;;4.91;81.24;101752.95;1668230;84;25591;-68
2022/10/07 03:15:19;;;;;;;24.98;12.35;;;;;;;4.89;81.43;101758.25;1668455;85;25606;-69
2022/10/07 03:17:45;;;;;;;20.02;12.10;;;;;;;4.84;81.34;101756.30;1668484;84;25670;-68
2022/10/07 03:20:14;;;;;;;20.43;11.88;;;;;;;4.81;81.33;101755.41;1668493;85;25601;-68
2022/10/07 03:22:41;;;;;;;23.92;13.38;;;;;;;4.76;81.11;101750.75;1642314;85;27275;-68
2022/10/07 03:25:09;;;;;;;24.52;12.73;;;;;;;4.73;81.11;101751.20;1647766;86;25559;-69
2022/10/07 03:27:37;;;;;;;24.37;13.45;;;;;;;4.71;81.03;101752.51;1643938;86;25441;-69
2022/10/07 03:30:06;;;;;;;22.80;12.75;;;;;;;4.66;81.24;101751.86;1633570;86;25529;-69
2022/10/07 03:32:32;;;;;;;21.10;12.23;;;;;;;4.64;81.32;101748.60;1648004;86;25675;-69
2022/10/07 03:34:59;;;;;;;28.70;13.98;;;;;;;4.61;81.39;101749.06;1643840;86;29730;-68
2022/10/07 03:37:28;;;;;;;23.67;13.62;;;;;;;4.59;81.69;101746.61;1633515;86;26052;-68
2022/10/07 03:39:54;;;;;;;25.20;12.68;;;;;;;4.55;81.67;101747.33;1633581;86;25416;-70
2022/10/07 03:42:21;;;;;;;22.00;12.98;;;;;;;4.54;81.70;101750.52;1647771;86;25547;-70
2022/10/07 03:44:52;;;;;;;23.50;13.35;;;;;;;4.52;81.77;101746.45;1643843;86;25575;-70
2022/10/07 03:47:16;;;;;;;28.62;14.75;;;;;;;4.48;81.70;101744.23;1633025;86;28018;-71
2022/10/07 03:49:44;;;;;;;28.25;13.90;;;;;;;4.44;81.56;101737.72;1633504;86;25584;-69
2022/10/07 03:52:10;;;;;;;23.07;13.28;;;;;;;4.42;81.47;101741.13;1633513;87;25693;-69
2022/10/07 03:54:36;;;;;;;21.00;13.10;;;;;;;4.40;81.68;101734.39;1620187;88;25748;-70
2022/10/07 03:57:48;;;;;;;22.48;13.32;;;;;;;4.37;81.56;101738.33;1647845;85;25724;-70
2022/10/07 03:59:31;;;;;;;23.42;14.25;;;;;;;4.36;81.92;101730.52;1621630;87;28238;-70
2022/10/07 04:01:58;;;;;;;20.17;13.08;;;;;;;4.34;81.99;101731.28;1645914;86;25503;-71
2022/10/07 04:04:24;;;;;;;21.93;13.75;;;;;;;4.30;81.80;101727.72;1644567;86;25705;-70
2022/10/07 04:06:50;;;;;;;26.73;14.63;;;;;;;4.29;81.55;101731.97;1644408;86;25589;-70
2022/10/07 04:09:16;;;;;;;29.72;15.18;;;;;;;4.27;82.13;101730.05;1637439;86;25503;-70
2022/10/07 04:11:42;;;;;;;29.60;14.07;;;;;;;4.27;82.23;101730.89;1666333;85;27474;-71
2022/10/07 04:14:09;;;;;;;25.70;14.75;;;;;;;4.26;82.22;101719.06;1631415;87;25844;-70
2022/10/07 04:16:37;;;;;;;26.07;15.80;;;;;;;4.25;82.36;101728.94;1666829;85;25640;-70
2022/10/07 04:19:04;;;;;;;28.12;14.68;;;;;;;4.24;82.25;101723.81;1659706;85;25484;-71
2022/10/07 04:21:30;;;;;;;24.98;15.88;;;;;;;4.21;82.02;101721.09;1666505;85;25615;-69
2022/10/07 04:23:56;;;;;;;27.77;14.68;;;;;;;4.20;82.26;101722.66;1664882;85;28236;-69
2022/10/07 04:26:22;;;;;;;26.57;14.60;;;;;;;4.18;82.40;101722.88;1666466;85;31019;-69
2022/10/07 04:28:50;;;;;;;27.65;16.17;;;;;;;4.18;82.51;101719.39;1667286;85;25378;-71
2022/10/07 04:31:16;;;;;;;30.45;15.28;;;;;;;4.16;82.56;101723.64;1665521;85;25814;-69
2022/10/07 04:33:43;;;;;;;27.40;15.05;;;;;;;4.14;82.52;101719.05;1671882;85;25874;-70
2022/10/07 04:36:11;;;;;;;25.27;15.28;;;;;;;4.14;82.39;101718.20;1662995;85;26890;-70
2022/10/07 04:38:38;;;;;;;29.75;15.60;;;;;;;4.10;82.40;101715.18;1669866;85;25640;-69
2022/10/07 04:41:06;;;;;;;27.93;16.17;;;;;;;4.10;82.59;101717.36;1666804;85;25800;-68
2022/10/07 04:43:34;;;;;;;27.37;16.52;;;;;;;4.09;82.62;101724.28;1648008;85;25706;-69
2022/10/07 04:46:08;;;;;;;29.10;17.50;;;;;;;4.08;82.43;101715.94;1643859;86;25348;-69
2022/10/07 04:48:35;;;;;;;28.65;15.88;;;;;;;4.07;82.40;101715.13;1643805;86;28051;-69
2022/10/07 04:51:07;;;;;;;33.88;17.50;;;;;;;4.05;82.23;101721.25;1643737;86;25956;-68
2022/10/07 04:53:35;;;;;;;28.75;16.48;;;;;;;4.04;82.55;101723.62;1643866;86;25626;-68
2022/10/07 04:56:03;;;;;;;27.98;16.52;;;;;;;4.03;82.41;101711.27;1643822;86;25590;-68
2022/10/07 04:58:30;;;;;;;28.52;18.82;;;;;;;4.04;82.76;101716.12;1642983;86;25601;-69
2022/10/07 05:00:59;;;;;;;32.13;17.67;;;;;;;4.02;82.98;101710.16;1643696;86;27553;-69
2022/10/07 05:03:28;;;;;;;28.83;18.52;;;;;;;4.03;83.42;101712.60;1643901;86;25409;-69
2022/10/07 05:05:58;;;;;;;30.68;17.50;;;;;;;4.05;83.82;101711.04;1642891;86;25583;-68
2022/10/07 05:08:25;;;;;;;28.07;17.45;;;;;;;4.07;83.55;101711.62;1643578;85;25578;-68
2022/10/07 05:10:59;;;;;;;31.10;17.50;;;;;;;4.08;83.62;101714.06;1645410;85;25577;-69
2022/10/07 05:13:26;;;;;;;33.75;18.37;;;;;;;4.09;83.82;101710.89;1660306;85;28039;-68
2022/10/07 05:15:56;;;;;;;29.60;17.90;;;;;;;4.10;83.79;101712.00;1673335;85;25781;-69
2022/10/07 05:18:25;;;;;;;28.55;17.95;;;;;;;4.13;83.77;101705.88;1675023;85;25630;-69
2022/10/07 05:20:52;;;;;;;34.60;20.20;;;;;;;4.12;83.83;101709.09;1674227;85;26027;-69
2022/10/07 05:23:21;;;;;;;34.43;19.55;;;;;;;4.15;83.93;101711.81;1663978;84;25778;-70
2022/10/07 05:26:01;;;;;;;29.37;17.48;;;;;;;4.16;84.06;101712.93;1673087;84;27492;-69
2022/10/07 05:28:28;;;;;;;29.15;18.65;;;;;;;4.18;84.18;101712.17;1667480;84;25597;-70
2022/10/07 05:31:11;;;;;;;28.60;15.98;;;;;;;4.20;84.11;101714.09;1673102;84;25726;-70
2022/10/07 05:33:39;;;;;;;34.03;19.45;;;;;;;4.22;84.17;101720.05;1677222;84;25551;-68
2022/10/07 05:36:08;;;;;;;37.10;19.52;;;;;;;4.25;84.74;101712.06;1673070;84;25587;-69
2022/10/07 05:38:35;;;;;;;33.48;20.88;;;;;;;4.30;85.34;101717.00;1678752;84;29800;-71
2022/10/07 05:41:05;;;;;;;35.28;21.45;;;;;;;4.34;85.53;101717.35;1672249;84;25593;-69
2022/10/07 05:43:36;;;;;;;34.85;21.10;;;;;;;4.40;86.16;101715.63;1668610;85;25653;-67
2022/10/07 05:46:07;;;;;;;33.67;20.10;;;;;;;4.45;86.30;101717.89;1668604;85;25754;-68
2022/10/07 05:48:35;;;;;;;29.63;19.55;;;;;;;4.51;86.63;101721.50;1669278;84;25704;-68
2022/10/07 05:51:02;;;;;;;36.38;21.35;;;;;;;4.57;87.04;101719.23;1650695;86;27479;-67
2022/10/07 05:53:30;;;;;;;35.45;21.00;;;;;;;4.66;87.66;101725.05;1652285;86;25698;-67
2022/10/07 05:55:56;;;;;;;37.83;21.52;;;;;;;4.76;88.23;101725.81;1650361;86;25664;-70
2022/10/07 05:58:22;;;;;;;36.42;21.57;;;;;;;4.85;88.46;101720.37;1653007;85;26417;-68
2022/10/07 06:00:58;;;;;;;35.13;21.15;;;;;;;4.97;88.82;101723.03;1679657;84;25639;-70
2022/10/07 06:03:25;;;;;;;37.13;21.65;;;;;;;5.08;89.31;101730.25;1675643;84;27527;-68
2022/10/07 06:05:53;;;;;;;33.48;22.20;;;;;;;5.18;89.28;101722.41;1679111;84;25781;-68
2022/10/07 06:08:22;;;;;;;32.53;21.27;;;;;;;5.31;89.55;101724.52;1676883;84;25434;-70
2022/10/07 06:13:35;;;;;;;38.60;20.95;;;;;;;5.59;90.12;101727.22;1674606;84;25588;-68
2022/10/07 06:16:05;;;;;;;34.35;22.00;;;;;;;5.77;90.32;101732.92;1677258;84;27573;-68
2022/10/07 06:18:34;;;;;;;33.15;21.42;;;;;;;5.92;90.51;101736.39;1671566;84;27324;-70
2022/10/07 06:21:01;;;;;;;34.92;22.93;;;;;;;6.10;90.94;101730.02;1675889;84;25477;-70
2022/10/07 06:23:29;;;;;;;39.23;23.27;;;;;;;6.34;91.97;101730.66;1678584;84;25528;-69
2022/10/07 06:26:02;;;;;;;36.30;22.27;;;;;;;6.59;92.43;101738.02;1676318;84;25582;-69
2022/10/07 06:28:36;;;;;;;34.83;21.60;;;;;;;6.90;93.17;101742.77;1680789;84;27486;-70
2022/10/07 06:31:07;;;;;;;39.98;24.72;;;;;;;7.33;95.77;101747.61;1671039;84;27037;-69
2022/10/07 06:33:34;;;;;;;37.53;23.67;;;;;;;7.65;94.75;101743.65;1652447;84;25674;-69
2022/10/07 06:36:10;;;;;;;45.23;25.88;;;;;;;7.96;93.94;101739.91;1670689;84;25634;-69
2022/10/07 06:38:37;;;;;;;40.75;24.47;;;;;;;8.33;95.01;101736.44;1671257;84;25428;-69
2022/10/07 06:41:05;;;;;;;41.10;24.75;;;;;;;8.84;96.02;101740.84;1666637;84;28434;-71
2022/10/07 06:43:33;;;;;;;34.70;22.95;;;;;;;9.07;92.08;101742.29;1671146;84;25655;-70
2022/10/07 06:46:03;;;;;;;36.38;22.73;;;;;;;9.48;93.06;101743.81;1670961;85;25584;-70
2022/10/07 06:48:32;;;;;;;30.15;20.40;;;;;;;9.93;93.28;101744.68;1670975;84;25488;-69
2022/10/07 06:51:05;;;;;;;27.27;17.45;;;;;;;10.25;90.94;101743.89;1651370;84;25721;-70
2022/10/07 06:53:30;;;;;;;25.92;15.78;;;;;;;10.71;91.05;101740.36;1668158;85;27498;-70
2022/10/07 06:56:01;;;;;;;27.30;17.60;;;;;;;11.05;88.52;101748.36;1669405;84;25685;-71
2022/10/07 06:58:28;;;;;;;26.57;15.68;;;;;;;11.28;87.35;101750.43;1669216;85;25717;-71
2022/10/07 07:00:56;;;;;;;26.80;16.00;;;;;;;11.70;87.63;101753.75;1667528;84;25790;-69
2022/10/07 07:03:24;;;;;;;33.20;19.15;;;;;;;12.14;87.57;101755.08;1670944;84;25634;-70
2022/10/07 07:05:51;;;;;;;22.95;14.18;;;;;;;12.53;85.42;101749.30;1670816;84;27481;-69
2022/10/07 07:08:19;;;;;;;24.18;14.55;;;;;;;12.88;84.81;101750.83;1670870;84;25696;-69
2022/10/07 07:10:46;;;;;;;22.07;13.30;;;;;;;13.32;83.73;101748.98;1672354;84;25766;-69
2022/10/07 07:13:14;;;;;;;19.37;12.07;;;;;;;13.70;81.88;101744.92;1688089;84;26321;-72
2022/10/07 07:15:41;;;;;;;19.70;12.60;;;;;;;13.99;80.12;101742.58;1672516;84;25670;-69
2022/10/07 07:18:10;;;;;;;21.27;12.43;;;;;;;14.32;79.01;101746.66;1694151;84;27527;-69
2022/10/07 07:20:38;;;;;;;21.15;11.68;;;;;;;14.79;78.74;101746.11;1693229;84;25699;-70
2022/10/07 07:23:10;;;;;;;19.77;12.40;;;;;;;15.23;77.88;101740.59;1686213;84;25478;-69
2022/10/07 07:25:39;;;;;;;16.55;11.05;;;;;;;15.77;77.15;101742.16;1681102;84;26011;-69
2022/10/07 07:28:07;;;;;;;19.37;10.68;;;;;;;16.32;75.19;101747.11;1685052;84;25711;-69
2022/10/07 07:30:34;;;;;;;14.00;9.40;;;;;;;16.60;72.21;101747.72;1677733;84;27648;-71
2022/10/07 07:33:01;;;;;;;16.73;10.25;;;;;;;16.91;71.60;101740.09;1686737;84;25409;-70
2022/10/07 07:35:32;;;;;;;16.40;9.80;;;;;;;17.36;71.16;101745.33;1683182;84;25726;-70
2022/10/07 07:37:59;;;;;;;14.83;9.13;;;;;;;17.78;69.95;101737.47;1679680;84;25768;-70
2022/10/07 07:40:26;;;;;;;13.53;10.03;;;;;;;18.31;69.49;101739.59;1682530;84;25884;-70
2022/10/07 07:42:55;;;;;;;17.92;10.28;;;;;;;18.71;67.05;101742.59;1670652;84;28338;-70
2022/10/07 07:45:22;;;;;;;15.03;8.25;;;;;;;19.11;65.79;101737.58;1673708;84;25471;-70
2022/10/07 07:47:48;;;;;;;12.43;7.55;;;;;;;19.41;64.04;101738.34;1685512;84;25571;-69
2022/10/07 07:50:17;;;;;;;12.03;7.62;;;;;;;19.69;62.71;101735.63;1676923;84;25638;-70
2022/10/07 07:52:44;;;;;;;11.10;6.77;;;;;;;19.86;61.89;101738.25;1685424;84;25421;-69
2022/10/07 07:55:10;;;;;;;16.37;8.23;;;;;;;20.10;60.69;101737.52;1678407;84;27533;-69
2022/10/07 07:57:36;;;;;;;13.80;6.72;;;;;;;20.02;58.90;101734.29;1679669;84;26107;-71
2022/10/07 08:00:06;;;;;;;13.28;7.35;;;;;;;20.11;58.91;101732.27;1685176;84;25606;-70
2022/10/07 08:02:33;;;;;;;9.40;6.53;;;;;;;20.41;58.98;101740.92;1684167;84;26082;-71
2022/10/07 08:04:59;;;;;;;10.28;6.60;;;;;;;20.65;58.08;101736.05;1659128;85;25846;-69
2022/10/07 08:07:26;;;;;;;12.95;7.17;;;;;;;20.92;57.59;101731.81;1651733;85;27511;-71
2022/10/07 08:09:52;;;;;;;12.30;5.90;;;;;;;21.29;56.30;101727.64;1653939;85;25726;-71
2022/10/07 08:12:20;;;;;;;11.55;6.33;;;;;;;21.36;55.22;101725.09;1649316;86;25693;-71
2022/10/07 08:14:49;;;;;;;11.28;5.72;;;;;;;21.43;55.34;101723.12;1639837;86;25592;-70
2022/10/07 08:17:15;;;;;;;19.23;6.25;;;;;;;21.82;54.23;101724.27;1656857;86;25692;-70
2022/10/07 08:19:41;;;;;;;11.97;5.35;;;;;;;22.24;54.91;101719.48;1665954;85;27479;-69
2022/10/07 08:22:08;;;;;;;11.43;5.72;;;;;;;22.36;52.78;101724.94;1673526;85;25728;-73
2022/10/07 08:24:34;;;;;;;8.35;5.55;;;;;;;22.42;51.59;101723.50;1669344;85;25721;-70
2022/10/07 08:27:01;;;;;;;7.65;5.37;;;;;;;22.35;50.51;101719.19;1674353;85;25488;-70
2022/10/07 08:29:27;;;;;;;10.85;9.50;;;;;;;22.26;50.58;101712.44;1649480;85;25742;-69
2022/10/07 08:31:53;;;;;;;10.78;5.40;;;;;;;22.40;50.26;101709.27;1650345;85;27463;-70
2022/10/07 08:34:19;;;;;;;11.65;5.35;;;;;;;22.70;50.69;101712.96;1649778;85;25854;-69
2022/10/07 08:36:47;;;;;;;10.55;4.65;;;;;;;22.81;48.86;101702.97;1651250;85;25405;-68
2022/10/07 08:39:14;;;;;;;10.53;4.92;;;;;;;22.63;48.13;101699.80;1650829;86;26267;-70
2022/10/07 08:42:07;;;;;;;9.50;4.25;;;;;;;22.56;47.75;101705.16;1652119;85;25570;-67
2022/10/07 08:44:44;;;;;;;5.75;4.05;;;;;;;22.57;47.22;101697.09;1656698;85;27621;-67
2022/10/07 08:47:39;;;;;;;7.37;4.42;;;;;;;22.64;47.87;101690.94;1675102;84;25836;-70
2022/10/07 08:50:17;;;;;;;9.00;4.15;;;;;;;22.50;46.62;101693.58;1659638;85;25661;-68
2022/10/07 08:52:51;;;;;;;7.03;3.92;;;;;;;22.53;46.90;101696.21;1639738;87;25518;-68
2022/10/07 08:55:38;;;;;;;10.80;4.03;;;;;;;22.41;45.73;101692.97;1659701;85;25584;-71
2022/10/07 08:58:47;;;;;;;9.20;4.37;;;;;;;22.50;46.52;101685.30;1655555;85;27624;-72
2022/10/07 09:01:45;;;;;;;6.90;3.83;;;;;;;22.49;45.53;101682.90;1647540;85;25684;-72
2022/10/07 09:04:41;;;;;;;11.85;3.70;;;;;;;22.51;45.39;101680.02;1671553;85;25564;-70
2022/10/07 09:07:27;;;;;;;8.63;3.40;;;;;;;22.73;45.00;101676.38;1607057;88;25634;-70
2022/10/07 09:10:11;;;;;;;5.97;3.77;;;;;;;22.82;44.04;101672.86;1596678;89;25485;-69
2022/10/07 09:12:52;;;;;;;9.48;3.95;;;;;;;22.99;45.21;101670.28;1546405;92;27580;-70
2022/10/07 09:15:42;;;;;;;9.05;4.00;;;;;;;23.63;45.50;101673.59;1546439;92;25492;-69
2022/10/07 09:18:35;;;;;;;6.25;3.50;;;;;;;24.17;45.05;101670.43;1535887;92;25915;-70
2022/10/07 09:21:08;;;;;;;8.35;3.17;;;;;;;24.45;43.63;101667.94;1556123;91;26297;-68
2022/10/07 09:23:35;;;;;;;8.28;3.45;;;;;;;24.78;43.85;101665.09;1557140;91;25691;-70
2022/10/07 09:26:15;;;;;;;6.58;3.17;;;;;;;25.24;42.56;101675.19;1547915;91;27612;-70
2022/10/07 09:28:42;;;;;;;7.05;3.27;;;;;;;25.39;41.64;101659.55;1541586;92;25882;-72
2022/10/07 09:31:13;;;;;;;11.35;3.27;;;;;;;25.40;40.56;101660.56;1545961;91;25880;-71
2022/10/07 09:33:48;;;;;;;7.40;3.42;;;;;;;25.31;41.29;101661.46;1553475;92;26079;-72
2022/10/07 09:36:18;;;;;;;5.92;3.10;;;;;;;25.35;39.36;101653.41;1545945;91;25745;-71
2022/10/07 09:38:49;;;;;;;6.28;3.52;;;;;;;25.15;39.10;101649.19;1541391;91;27661;-71
2022/10/07 09:41:29;;;;;;;6.92;3.87;;;;;;;24.93;39.89;101651.66;1556362;90;25895;-70
2022/10/07 09:44:04;;;;;;;4.87;3.30;;;;;;;25.09;39.92;101646.52;1559468;90;25511;-72
2022/10/07 09:46:51;;;;;;;6.50;3.47;;;;;;;25.13;40.41;101639.05;1580545;90;25861;-70
2022/10/07 09:49:33;;;;;;;4.30;2.40;;;;;;;25.17;39.50;101628.83;1609223;86;25610;-71
2022/10/07 09:52:17;;;;;;;3.98;3.30;;;;;;;25.10;38.51;101628.16;1658927;86;28107;-71
2022/10/07 09:54:47;;;;;;;7.55;2.87;;;;;;;24.85;38.70;101631.98;1663652;86;25814;-72
2022/10/07 09:57:30;;;;;;;9.43;3.00;;;;;;;24.93;39.85;101630.12;1659707;86;25600;-71
2022/10/07 10:00:17;;;;;;;6.97;2.90;;;;;;;24.86;38.67;101623.08;1663957;86;25530;-72
2022/10/07 10:02:50;;;;;;;7.83;2.58;;;;;;;24.87;38.67;101628.25;1661026;86;25730;-71
2022/10/07 10:05:30;;;;;;;7.37;2.92;;;;;;;25.02;38.40;101604.33;1658758;86;27528;-70
2022/10/07 10:08:01;;;;;;;6.25;3.45;;;;;;;24.90;37.17;101608.73;1663691;86;25780;-71
2022/10/07 10:10:32;;;;;;;8.95;3.10;;;;;;;24.85;36.89;101607.67;1661558;85;25649;-71
2022/10/07 10:13:02;;;;;;;10.93;5.15;;;;;;;24.75;37.17;101608.52;1661445;86;25805;-71
2022/10/07 10:15:42;;;;;;;4.70;2.47;;;;;;;24.67;37.18;101606.03;1650844;86;25689;-71
2022/10/07 10:18:39;;;;;;;5.83;2.75;;;;;;;24.56;37.04;101600.37;1657432;86;27521;-70
2022/10/07 10:21:36;;;;;;;4.37;2.40;;;;;;;24.64;37.42;101595.15;1649336;86;25949;-71
2022/10/07 10:24:07;;;;;;;7.10;3.12;;;;;;;24.69;37.79;101600.92;1650309;86;25724;-70
2022/10/07 10:26:45;;;;;;;12.37;5.37;;;;;;;24.79;37.63;101579.52;1686932;84;26110;-70
2022/10/07 10:29:47;;;;;;;7.12;3.02;;;;;;;24.70;36.97;101569.33;1689911;84;25861;-72
2022/10/07 10:32:33;;;;;;;5.35;2.35;;;;;;;24.60;37.66;101570.77;1687943;84;27645;-70
2022/10/07 10:35:20;;;;;;;7.60;4.05;;;;;;;24.38;35.56;101574.61;1689423;84;26055;-71
2022/10/07 10:38:07;;;;;;;7.40;3.65;;;;;;;24.17;37.47;101565.40;1683846;84;25651;-70
2022/10/07 10:40:45;;;;;;;6.15;3.10;;;;;;;24.36;38.21;101556.19;1664830;85;26141;-71
2022/10/07 10:43:49;;;;;;;5.03;4.62;;;;;;;24.69;38.04;101560.25;1670887;84;25670;-71
2022/10/07 10:46:32;;;;;;;4.97;3.22;;;;;;;24.98;38.59;101550.91;1625307;87;27531;-72
2022/10/07 10:49:24;;;;;;;6.83;2.87;;;;;;;25.73;38.58;101554.46;1639384;87;25753;-71
2022/10/07 10:52:08;;;;;;;5.37;2.60;;;;;;;26.28;37.23;101549.53;1639713;87;25794;-71
2022/10/07 10:55:04;;;;;;;6.65;2.62;;;;;;;26.19;36.34;101549.70;1638395;87;26628;-72
2022/10/07 10:57:38;;;;;;;9.45;3.58;;;;;;;25.78;34.99;101532.54;1584709;90;25766;-71
2022/10/07 11:00:15;;;;;;;27.75;26.07;;;;;;;25.36;35.83;101526.82;1583741;90;28145;-70
2022/10/07 11:02:58;;;;;;;59.50;55.88;;;;;;;25.35;36.05;101522.45;1580765;90;25862;-70
2022/10/07 11:05:39;;;;;;;59.93;56.42;;;;;;;25.55;36.16;101524.42;1560420;90;25662;-72
2022/10/07 11:08:11;;;;;;;67.65;63.75;;;;;;;25.55;36.97;101511.95;1558222;90;26011;-70
2022/10/07 11:11:11;;;;;;;70.00;65.95;;;;;;;25.83;36.67;101507.81;1559949;90;25841;-71
2022/10/07 11:14:06;;;;;;;68.87;64.80;;;;;;;25.85;36.14;101504.09;1559779;90;29133;-71
2022/10/07 11:16:55;;;;;;;2.70;1.42;;;;;;;25.99;36.43;101493.12;1557226;91;25466;-70
2022/10/07 11:19:38;;;;;;;3.62;3.20;;;;;;;26.24;36.23;101491.10;1550870;91;25673;-70
2022/10/07 11:22:14;;;;;;;5.28;3.30;;;;;;;26.82;35.99;101481.84;1585544;89;25598;-69
2022/10/07 11:24:53;;;;;;;4.70;2.05;;;;;;;27.05;34.03;101486.25;1607903;89;25620;-70
2022/10/07 11:27:26;;;;;;;57.13;53.53;;;;;;;26.80;34.34;101467.58;1611418;89;28184;-70
2022/10/07 11:30:16;;;;;;;64.32;60.83;;;;;;;26.79;32.37;101472.91;1592084;89;25675;-70
2022/10/07 11:33:04;;;;;;;62.38;59.00;;;;;;;26.28;33.63;101454.47;1675328;84;25813;-70
2022/10/07 11:35:43;;;;;;;63.90;60.20;;;;;;;26.12;32.55;101452.02;1682347;84;25637;-70
2022/10/07 11:38:15;;;;;;;65.25;61.13;;;;;;;25.73;33.64;101442.84;1673548;84;25577;-70
2022/10/07 11:40:50;;;;;;;64.35;60.65;;;;;;;25.84;34.80;101440.92;1638970;85;27657;-70
2022/10/07 11:43:31;;;;;;;65.40;61.77;;;;;;;25.94;33.51;101441.39;1627838;86;25742;-72
2022/10/07 11:46:15;;;;;;;63.20;59.50;;;;;;;25.49;33.70;101438.72;1649109;85;25873;-70
2022/10/07 11:48:53;;;;;;;3.22;1.60;;;;;;;25.67;34.24;101423.60;1648982;86;25638;-70
2022/10/07 11:51:28;;;;;;;5.00;1.75;;;;;;;25.89;35.37;101425.91;1649137;86;25740;-69